»·PEaware :: N61709 KTRM-KSBD

N61709 :: KTRM-KSBD

FLIGHT INFORMATION

Flight Status: Arrived
Operator: Privately registered:
United States
More flights under this callsign
Pilot: Eduardo Elias G. (24838)
Aircraft: CESSNA 172 SKYHAWK
(C172)
More flights by this aircraft type
Origin: KTRM Desert Resorts Regl
United States
Destination: KSBD San Bernardino Intl
United States
More flights between these airports :: More routes between these airports
Route: KUDD PSP KBNG
File this flight plan on PilotEdge
Remarks:
Altitude:
(Current/Filed)
6,500ft
Speed:
(Current/Filed)
115kts
Departed: 17-Sep-19 08:58 PM
Arrived: 17-Sep-19 09:41 PM
Distance/Time
Traveled:
63nm/0:42
Distance/Time
To Go:
Arrived

Flight Plot

Page will automatically refresh every two minutes.

Flight plan parsing failed; only flown route is shown


Map Options




Map Legend


Flown Route
Filed Route
Departure Airport
Arrival Airport
Navaid (VOR, NDB)
Fix

Horizontal Profiles

Position Reports

Time Latitude Longitude Heading Altitude Ground
Speed
17-Sep-19 20:22 33.634993 -116.161870 268 -110ft 0kts
17-Sep-19 20:23 33.634993 -116.161870 268 -110ft 0kts
17-Sep-19 20:24 33.634993 -116.161870 268 -110ft 0kts
17-Sep-19 20:25 33.634993 -116.161870 268 -110ft 0kts
17-Sep-19 20:26 33.634986 -116.162140 268 -110ft 1kts
17-Sep-19 20:27 33.634985 -116.162157 268 -110ft 0kts
17-Sep-19 20:28 33.634985 -116.162158 268 -110ft 0kts
17-Sep-19 20:29 33.634985 -116.162159 268 -110ft 0kts
17-Sep-19 20:30 33.634985 -116.162159 268 -110ft 0kts
17-Sep-19 20:31 33.634985 -116.162159 268 -110ft 0kts
17-Sep-19 20:32 33.634985 -116.162159 268 -110ft 0kts
17-Sep-19 20:33 33.634985 -116.162159 268 -110ft 0kts
17-Sep-19 20:34 33.634985 -116.162159 268 -110ft 0kts
17-Sep-19 20:35 33.634985 -116.162159 268 -110ft 0kts
17-Sep-19 20:39 33.634993 -116.161873 268 -110ft 0kts
17-Sep-19 20:40 33.634993 -116.161875 268 -110ft 0kts
17-Sep-19 20:41 33.634993 -116.161878 268 -110ft 0kts
17-Sep-19 20:42 33.634993 -116.161880 268 -110ft 0kts
17-Sep-19 20:43 33.634993 -116.161882 268 -110ft 0kts
17-Sep-19 20:44 33.634993 -116.161884 268 -110ft 0kts
17-Sep-19 20:45 33.634992 -116.161887 268 -110ft 0kts
17-Sep-19 20:46 33.634992 -116.161890 268 -110ft 0kts
17-Sep-19 20:47 33.634989 -116.162017 267 -110ft 4kts
17-Sep-19 20:48 33.634671 -116.160633 93 -110ft 8kts
17-Sep-19 20:49 33.633756 -116.158401 179 -110ft 8kts
17-Sep-19 20:50 33.631042 -116.158422 180 -110ft 13kts
17-Sep-19 20:51 33.625409 -116.158410 181 -110ft 25kts
17-Sep-19 20:52 33.618732 -116.158404 180 -110ft 21kts
17-Sep-19 20:53 33.616293 -116.158404 178 -110ft 0kts
17-Sep-19 20:54 33.616287 -116.158404 178 -110ft 0kts
17-Sep-19 20:55 33.616027 -116.158141 98 -110ft 8kts
17-Sep-19 20:56 33.617633 -116.156447 0 -110ft 37kts
17-Sep-19 20:57 33.635562 -116.156392 357 494ft 75kts
17-Sep-19 20:58 33.655518 -116.162853 322 1286ft 76kts
17-Sep-19 20:59 33.672669 -116.177183 322 2072ft 73kts
17-Sep-19 21:00 33.687927 -116.189442 302 2845ft 52kts
17-Sep-19 21:01 33.702898 -116.209885 322 3096ft 103kts
17-Sep-19 21:02 33.726649 -116.229928 315 3528ft 101kts
17-Sep-19 21:03 33.746926 -116.252285 313 4042ft 95kts
17-Sep-19 21:04 33.763862 -116.274752 306 4621ft 87kts
17-Sep-19 21:05 33.779846 -116.295637 306 5208ft 81kts
17-Sep-19 21:06 33.795140 -116.314592 304 5806ft 76kts
17-Sep-19 21:07 33.810832 -116.335134 304 6192ft 88kts
17-Sep-19 21:08 33.828318 -116.358343 304 6404ft 104kts
17-Sep-19 21:09 33.847299 -116.384209 304 6398ft 102kts
17-Sep-19 21:10 33.865475 -116.410201 302 6400ft 101kts
17-Sep-19 21:11 33.880591 -116.438308 290 6400ft 98kts
17-Sep-19 21:12 33.890923 -116.468629 285 6401ft 98kts
17-Sep-19 21:13 33.897206 -116.500486 276 6401ft 97kts
17-Sep-19 21:14 33.901721 -116.532857 276 6403ft 100kts
17-Sep-19 21:15 33.906352 -116.566354 276 6400ft 101kts
17-Sep-19 21:16 33.910984 -116.599977 276 6402ft 102kts
17-Sep-19 21:17 33.916998 -116.633828 278 6400ft 103kts
17-Sep-19 21:18 33.922814 -116.667771 278 6400ft 103kts
17-Sep-19 21:19 33.927657 -116.702025 276 6400ft 103kts
17-Sep-19 21:20 33.931811 -116.736235 275 6400ft 103kts
17-Sep-19 21:21 33.934672 -116.770526 272 6400ft 103kts
17-Sep-19 21:22 33.936991 -116.803732 272 6396ft 97kts
17-Sep-19 21:23 33.939266 -116.835751 272 6400ft 95kts
17-Sep-19 21:24 33.941556 -116.867900 272 6400ft 95kts
17-Sep-19 21:25 33.943842 -116.899913 272 6400ft 96kts
17-Sep-19 21:26 33.946134 -116.932033 272 6399ft 95kts
17-Sep-19 21:27 33.951051 -116.962978 301 6400ft 92kts
17-Sep-19 21:28 33.967285 -116.987793 301 5944ft 96kts
17-Sep-19 21:29 33.983797 -117.013973 301 5457ft 98kts
17-Sep-19 21:30 34.000247 -117.040801 301 4964ft 100kts
17-Sep-19 21:31 34.016362 -117.068370 297 4513ft 97kts
17-Sep-19 21:32 34.031308 -117.096310 300 3842ft 106kts
17-Sep-19 21:33 34.048109 -117.124627 304 3010ft 102kts
17-Sep-19 21:34 34.062615 -117.159114 278 2570ft 115kts
17-Sep-19 21:35 34.062130 -117.196870 264 2445ft 111kts
17-Sep-19 21:36 34.055877 -117.233396 255 2179ft 111kts
17-Sep-19 21:37 34.057784 -117.262636 336 1917ft 76kts
17-Sep-19 21:38 34.076373 -117.268947 354 1720ft 65kts
17-Sep-19 21:39 34.089269 -117.255717 73 1340ft 70kts
17-Sep-19 21:40 34.094282 -117.240355 26 1122ft 20kts
17-Sep-19 21:41 34.094497 -117.240196 34 1122ft 0kts
17-Sep-19 21:42 34.094502 -117.240192 34 1122ft 0kts
17-Sep-19 21:43 34.095043 -117.239812 29 1122ft 11kts
17-Sep-19 21:44 34.094245 -117.244104 247 1122ft 22kts
17-Sep-19 21:45 34.092376 -117.250489 243 1122ft 17kts
17-Sep-19 21:46 34.091644 -117.250333 160 1122ft 0kts
17-Sep-19 21:47 34.091641 -117.250332 160 1122ft 0kts
17-Sep-19 21:48 34.091639 -117.250330 160 1122ft 0kts
17-Sep-19 21:49 34.091636 -117.250329 160 1122ft 0kts
17-Sep-19 21:50 34.091634 -117.250328 160 1122ft 0kts
17-Sep-19 21:51 34.091000 -117.249624 77 1122ft 10kts
17-Sep-19 21:52 34.100140 -117.231048 12 1607ft 77kts
17-Sep-19 21:53 34.112854 -117.247492 279 2370ft 73kts
17-Sep-19 21:54 34.115116 -117.271392 273 3109ft 72kts

Navigation Log

Ident Type
Flight plan parsing failed, navigation log unavailable